sensor_id;sensor_type;location;lat;lon;timestamp;P1;durP1;ratioP1;P2;durP2;ratioP2
70199;SDS011;57587;55.688;37.600;2023-04-19T00:00:11;14.13;;;8.40;;
70199;SDS011;57587;55.688;37.600;2023-04-19T00:02:40;19.27;;;8.90;;
70199;SDS011;57587;55.688;37.600;2023-04-19T00:05:10;28.38;;;10.35;;
70199;SDS011;57587;55.688;37.600;2023-04-19T00:07:39;33.72;;;10.85;;
70199;SDS011;57587;55.688;37.600;2023-04-19T00:10:07;41.53;;;11.05;;
70199;SDS011;57587;55.688;37.600;2023-04-19T00:12:34;24.37;;;9.13;;
70199;SDS011;57587;55.688;37.600;2023-04-19T00:15:02;14.95;;;8.73;;
70199;SDS011;57587;55.688;37.600;2023-04-19T00:17:30;21.67;;;9.25;;
70199;SDS011;57587;55.688;37.600;2023-04-19T00:19:59;20.50;;;9.20;;
70199;SDS011;57587;55.688;37.600;2023-04-19T00:22:27;21.50;;;9.52;;
70199;SDS011;57587;55.688;37.600;2023-04-19T00:24:54;18.23;;;10.00;;
70199;SDS011;57587;55.688;37.600;2023-04-19T00:27:21;19.33;;;9.27;;
70199;SDS011;57587;55.688;37.600;2023-04-19T00:29:48;19.42;;;9.55;;
70199;SDS011;57587;55.688;37.600;2023-04-19T00:32:16;32.03;;;9.70;;
70199;SDS011;57587;55.688;37.600;2023-04-19T00:34:43;20.10;;;9.18;;
70199;SDS011;57587;55.688;37.600;2023-04-19T00:37:10;16.13;;;8.83;;
70199;SDS011;57587;55.688;37.600;2023-04-19T00:39:38;18.55;;;8.63;;
70199;SDS011;57587;55.688;37.600;2023-04-19T00:42:05;13.90;;;8.32;;
70199;SDS011;57587;55.688;37.600;2023-04-19T00:44:32;15.60;;;8.57;;
70199;SDS011;57587;55.688;37.600;2023-04-19T00:46:59;16.10;;;7.88;;
70199;SDS011;57587;55.688;37.600;2023-04-19T00:49:28;17.53;;;9.47;;
70199;SDS011;57587;55.688;37.600;2023-04-19T00:51:55;19.80;;;8.93;;
70199;SDS011;57587;55.688;37.600;2023-04-19T00:54:22;26.33;;;9.70;;
70199;SDS011;57587;55.688;37.600;2023-04-19T00:56:50;23.92;;;10.20;;
70199;SDS011;57587;55.688;37.600;2023-04-19T00:59:17;28.48;;;10.15;;
70199;SDS011;57587;55.688;37.600;2023-04-19T01:01:44;27.20;;;10.23;;
70199;SDS011;57587;55.688;37.600;2023-04-19T01:04:12;18.83;;;10.27;;
70199;SDS011;57587;55.688;37.600;2023-04-19T01:06:40;22.98;;;10.70;;
70199;SDS011;57587;55.688;37.600;2023-04-19T01:09:10;23.13;;;9.88;;
70199;SDS011;57587;55.688;37.600;2023-04-19T01:11:40;18.17;;;10.50;;
70199;SDS011;57587;55.688;37.600;2023-04-19T01:14:09;22.47;;;9.80;;
70199;SDS011;57587;55.688;37.600;2023-04-19T01:16:36;22.67;;;9.65;;
70199;SDS011;57587;55.688;37.600;2023-04-19T01:19:04;15.63;;;9.75;;
70199;SDS011;57587;55.688;37.600;2023-04-19T01:21:35;17.30;;;10.40;;
70199;SDS011;57587;55.688;37.600;2023-04-19T01:24:04;16.75;;;9.93;;
70199;SDS011;57587;55.688;37.600;2023-04-19T01:26:31;20.63;;;9.33;;
70199;SDS011;57587;55.688;37.600;2023-04-19T01:29:01;16.75;;;9.50;;
70199;SDS011;57587;55.688;37.600;2023-04-19T01:31:28;19.73;;;10.38;;
70199;SDS011;57587;55.688;37.600;2023-04-19T01:33:55;19.75;;;9.95;;
70199;SDS011;57587;55.688;37.600;2023-04-19T01:36:22;19.25;;;10.25;;
70199;SDS011;57587;55.688;37.600;2023-04-19T01:38:49;19.23;;;9.57;;
70199;SDS011;57587;55.688;37.600;2023-04-19T01:41:17;26.80;;;10.75;;
70199;SDS011;57587;55.688;37.600;2023-04-19T01:43:46;19.00;;;9.75;;
70199;SDS011;57587;55.688;37.600;2023-04-19T01:46:13;17.20;;;9.80;;
70199;SDS011;57587;55.688;37.600;2023-04-19T01:48:40;14.90;;;9.20;;
70199;SDS011;57587;55.688;37.600;2023-04-19T01:51:07;12.60;;;8.90;;
70199;SDS011;57587;55.688;37.600;2023-04-19T01:53:34;21.92;;;10.68;;
70199;SDS011;57587;55.688;37.600;2023-04-19T01:56:02;17.92;;;10.27;;
70199;SDS011;57587;55.688;37.600;2023-04-19T01:58:29;13.85;;;9.43;;
70199;SDS011;57587;55.688;37.600;2023-04-19T02:00:56;16.90;;;9.73;;
70199;SDS011;57587;55.688;37.600;2023-04-19T02:03:23;16.10;;;9.00;;
70199;SDS011;57587;55.688;37.600;2023-04-19T02:05:51;16.00;;;10.48;;
70199;SDS011;57587;55.688;37.600;2023-04-19T02:08:21;17.17;;;9.40;;
70199;SDS011;57587;55.688;37.600;2023-04-19T02:10:48;16.55;;;9.93;;
70199;SDS011;57587;55.688;37.600;2023-04-19T02:13:16;16.63;;;9.68;;
70199;SDS011;57587;55.688;37.600;2023-04-19T02:15:43;17.83;;;10.67;;
70199;SDS011;57587;55.688;37.600;2023-04-19T02:18:30;17.20;;;10.50;;
70199;SDS011;57587;55.688;37.600;2023-04-19T02:20:58;15.90;;;9.70;;
70199;SDS011;57587;55.688;37.600;2023-04-19T02:23:25;18.15;;;9.52;;
70199;SDS011;57587;55.688;37.600;2023-04-19T02:25:52;22.60;;;10.40;;
70199;SDS011;57587;55.688;37.600;2023-04-19T02:28:19;17.63;;;9.77;;
70199;SDS011;57587;55.688;37.600;2023-04-19T02:30:47;18.27;;;9.65;;
70199;SDS011;57587;55.688;37.600;2023-04-19T02:33:14;16.08;;;9.75;;
70199;SDS011;57587;55.688;37.600;2023-04-19T02:35:42;18.60;;;9.30;;
70199;SDS011;57587;55.688;37.600;2023-04-19T02:38:09;22.83;;;9.80;;
70199;SDS011;57587;55.688;37.600;2023-04-19T02:40:36;14.73;;;9.10;;
70199;SDS011;57587;55.688;37.600;2023-04-19T02:43:03;18.90;;;9.93;;
70199;SDS011;57587;55.688;37.600;2023-04-19T02:45:30;21.88;;;10.68;;
70199;SDS011;57587;55.688;37.600;2023-04-19T02:47:57;19.35;;;9.65;;
70199;SDS011;57587;55.688;37.600;2023-04-19T02:50:25;22.90;;;10.93;;
70199;SDS011;57587;55.688;37.600;2023-04-19T02:52:52;26.17;;;9.87;;
70199;SDS011;57587;55.688;37.600;2023-04-19T02:55:22;22.70;;;11.45;;
70199;SDS011;57587;55.688;37.600;2023-04-19T02:57:59;29.83;;;9.90;;
70199;SDS011;57587;55.688;37.600;2023-04-19T03:00:26;29.52;;;9.63;;
70199;SDS011;57587;55.688;37.600;2023-04-19T03:03:02;20.45;;;9.95;;
70199;SDS011;57587;55.688;37.600;2023-04-19T03:05:32;21.33;;;9.77;;
70199;SDS011;57587;55.688;37.600;2023-04-19T03:07:59;17.83;;;9.13;;
70199;SDS011;57587;55.688;37.600;2023-04-19T03:10:26;14.75;;;8.90;;
70199;SDS011;57587;55.688;37.600;2023-04-19T03:12:53;18.95;;;9.60;;
70199;SDS011;57587;55.688;37.600;2023-04-19T03:15:21;20.48;;;9.57;;
70199;SDS011;57587;55.688;37.600;2023-04-19T03:17:48;18.03;;;9.87;;
70199;SDS011;57587;55.688;37.600;2023-04-19T03:20:17;20.77;;;10.73;;
70199;SDS011;57587;55.688;37.600;2023-04-19T03:22:46;14.18;;;9.75;;
70199;SDS011;57587;55.688;37.600;2023-04-19T03:25:14;16.55;;;8.85;;
70199;SDS011;57587;55.688;37.600;2023-04-19T03:27:45;22.25;;;10.30;;
70199;SDS011;57587;55.688;37.600;2023-04-19T03:30:16;26.90;;;10.60;;
70199;SDS011;57587;55.688;37.600;2023-04-19T03:32:44;27.35;;;9.82;;
70199;SDS011;57587;55.688;37.600;2023-04-19T03:35:13;17.02;;;8.75;;
70199;SDS011;57587;55.688;37.600;2023-04-19T03:37:40;16.45;;;9.23;;
70199;SDS011;57587;55.688;37.600;2023-04-19T03:40:09;16.10;;;9.60;;
70199;SDS011;57587;55.688;37.600;2023-04-19T03:42:36;22.37;;;9.67;;
70199;SDS011;57587;55.688;37.600;2023-04-19T03:45:11;21.85;;;9.00;;
70199;SDS011;57587;55.688;37.600;2023-04-19T03:47:43;20.55;;;9.00;;
70199;SDS011;57587;55.688;37.600;2023-04-19T03:50:12;18.73;;;9.45;;
70199;SDS011;57587;55.688;37.600;2023-04-19T03:52:43;20.90;;;9.40;;
70199;SDS011;57587;55.688;37.600;2023-04-19T03:55:26;20.97;;;8.90;;
70199;SDS011;57587;55.688;37.600;2023-04-19T03:57:53;20.42;;;9.60;;
70199;SDS011;57587;55.688;37.600;2023-04-19T04:00:45;20.23;;;9.48;;
70199;SDS011;57587;55.688;37.600;2023-04-19T04:03:13;20.63;;;9.88;;
70199;SDS011;57587;55.688;37.600;2023-04-19T04:05:41;22.85;;;10.82;;
70199;SDS011;57587;55.688;37.600;2023-04-19T04:08:08;20.83;;;11.00;;
70199;SDS011;57587;55.688;37.600;2023-04-19T04:10:35;31.00;;;9.55;;
70199;SDS011;57587;55.688;37.600;2023-04-19T04:13:03;22.83;;;9.85;;
70199;SDS011;57587;55.688;37.600;2023-04-19T04:15:39;19.67;;;9.68;;
70199;SDS011;57587;55.688;37.600;2023-04-19T04:18:09;29.05;;;10.13;;
70199;SDS011;57587;55.688;37.600;2023-04-19T04:20:37;22.07;;;10.13;;
70199;SDS011;57587;55.688;37.600;2023-04-19T04:23:07;17.80;;;10.68;;
70199;SDS011;57587;55.688;37.600;2023-04-19T04:25:40;22.95;;;10.00;;
70199;SDS011;57587;55.688;37.600;2023-04-19T04:28:11;24.92;;;11.10;;
70199;SDS011;57587;55.688;37.600;2023-04-19T04:30:40;20.45;;;10.90;;
70199;SDS011;57587;55.688;37.600;2023-04-19T04:33:09;18.67;;;10.50;;
70199;SDS011;57587;55.688;37.600;2023-04-19T04:35:40;20.67;;;10.85;;
70199;SDS011;57587;55.688;37.600;2023-04-19T04:38:13;18.73;;;11.10;;
70199;SDS011;57587;55.688;37.600;2023-04-19T04:40:53;33.00;;;12.07;;
70199;SDS011;57587;55.688;37.600;2023-04-19T04:43:22;23.13;;;10.60;;
70199;SDS011;57587;55.688;37.600;2023-04-19T04:45:51;17.80;;;9.98;;
70199;SDS011;57587;55.688;37.600;2023-04-19T04:48:28;26.73;;;11.05;;
70199;SDS011;57587;55.688;37.600;2023-04-19T04:50:56;21.75;;;9.90;;
70199;SDS011;57587;55.688;37.600;2023-04-19T04:53:25;19.33;;;10.10;;
70199;SDS011;57587;55.688;37.600;2023-04-19T04:55:53;23.08;;;10.93;;
70199;SDS011;57587;55.688;37.600;2023-04-19T04:58:21;23.92;;;12.68;;
70199;SDS011;57587;55.688;37.600;2023-04-19T05:01:09;23.05;;;11.23;;
70199;SDS011;57587;55.688;37.600;2023-04-19T05:03:38;24.60;;;11.80;;
70199;SDS011;57587;55.688;37.600;2023-04-19T05:06:11;27.83;;;12.02;;
70199;SDS011;57587;55.688;37.600;2023-04-19T05:08:38;22.50;;;11.95;;
70199;SDS011;57587;55.688;37.600;2023-04-19T05:11:15;25.63;;;11.77;;
70199;SDS011;57587;55.688;37.600;2023-04-19T05:13:43;20.17;;;11.50;;
70199;SDS011;57587;55.688;37.600;2023-04-19T05:16:10;20.30;;;11.80;;
70199;SDS011;57587;55.688;37.600;2023-04-19T05:18:41;24.00;;;11.13;;
70199;SDS011;57587;55.688;37.600;2023-04-19T05:21:08;25.95;;;10.85;;
70199;SDS011;57587;55.688;37.600;2023-04-19T05:23:37;26.63;;;10.77;;
70199;SDS011;57587;55.688;37.600;2023-04-19T05:26:05;19.40;;;10.33;;
70199;SDS011;57587;55.688;37.600;2023-04-19T05:28:32;24.20;;;12.07;;
70199;SDS011;57587;55.688;37.600;2023-04-19T05:31:05;20.77;;;11.95;;
70199;SDS011;57587;55.688;37.600;2023-04-19T05:33:42;17.30;;;10.70;;
70199;SDS011;57587;55.688;37.600;2023-04-19T05:36:09;16.63;;;11.63;;
70199;SDS011;57587;55.688;37.600;2023-04-19T05:38:36;19.90;;;10.67;;
70199;SDS011;57587;55.688;37.600;2023-04-19T05:41:05;21.27;;;11.15;;
70199;SDS011;57587;55.688;37.600;2023-04-19T05:43:32;23.58;;;10.88;;
70199;SDS011;57587;55.688;37.600;2023-04-19T05:46:00;16.02;;;10.50;;
70199;SDS011;57587;55.688;37.600;2023-04-19T05:48:28;31.10;;;11.50;;
70199;SDS011;57587;55.688;37.600;2023-04-19T05:51:21;19.67;;;11.53;;
70199;SDS011;57587;55.688;37.600;2023-04-19T05:53:59;24.25;;;11.60;;
70199;SDS011;57587;55.688;37.600;2023-04-19T05:56:28;25.23;;;11.60;;
70199;SDS011;57587;55.688;37.600;2023-04-19T05:58:55;26.20;;;11.35;;
70199;SDS011;57587;55.688;37.600;2023-04-19T06:01:23;26.58;;;11.60;;
70199;SDS011;57587;55.688;37.600;2023-04-19T06:03:50;24.60;;;11.57;;
70199;SDS011;57587;55.688;37.600;2023-04-19T06:06:20;19.65;;;10.98;;
70199;SDS011;57587;55.688;37.600;2023-04-19T06:08:49;18.52;;;10.43;;
70199;SDS011;57587;55.688;37.600;2023-04-19T06:11:20;19.20;;;10.50;;
70199;SDS011;57587;55.688;37.600;2023-04-19T06:14:01;17.30;;;10.55;;
70199;SDS011;57587;55.688;37.600;2023-04-19T06:16:28;30.50;;;10.83;;
70199;SDS011;57587;55.688;37.600;2023-04-19T06:18:55;20.00;;;11.10;;
70199;SDS011;57587;55.688;37.600;2023-04-19T06:21:23;17.40;;;9.35;;
70199;SDS011;57587;55.688;37.600;2023-04-19T06:23:50;20.10;;;9.98;;
70199;SDS011;57587;55.688;37.600;2023-04-19T06:26:17;21.70;;;10.65;;
70199;SDS011;57587;55.688;37.600;2023-04-19T06:28:44;19.63;;;10.07;;
70199;SDS011;57587;55.688;37.600;2023-04-19T06:31:11;17.15;;;9.23;;
70199;SDS011;57587;55.688;37.600;2023-04-19T06:33:39;15.60;;;10.15;;
70199;SDS011;57587;55.688;37.600;2023-04-19T06:36:06;22.55;;;10.23;;
70199;SDS011;57587;55.688;37.600;2023-04-19T06:38:33;14.60;;;10.73;;
70199;SDS011;57587;55.688;37.600;2023-04-19T06:41:00;21.07;;;9.33;;
70199;SDS011;57587;55.688;37.600;2023-04-19T06:43:30;14.75;;;9.57;;
70199;SDS011;57587;55.688;37.600;2023-04-19T06:46:01;17.80;;;9.68;;
70199;SDS011;57587;55.688;37.600;2023-04-19T06:48:30;16.73;;;8.70;;
70199;SDS011;57587;55.688;37.600;2023-04-19T06:50:57;15.50;;;9.27;;
70199;SDS011;57587;55.688;37.600;2023-04-19T06:53:24;11.13;;;7.60;;
70199;SDS011;57587;55.688;37.600;2023-04-19T06:55:56;16.88;;;8.45;;
70199;SDS011;57587;55.688;37.600;2023-04-19T06:58:25;11.93;;;8.75;;
70199;SDS011;57587;55.688;37.600;2023-04-19T07:00:53;19.17;;;8.93;;
70199;SDS011;57587;55.688;37.600;2023-04-19T07:03:20;17.17;;;8.05;;
70199;SDS011;57587;55.688;37.600;2023-04-19T07:05:48;12.33;;;7.90;;
70199;SDS011;57587;55.688;37.600;2023-04-19T07:08:17;14.80;;;7.63;;
70199;SDS011;57587;55.688;37.600;2023-04-19T07:10:44;17.33;;;8.32;;
70199;SDS011;57587;55.688;37.600;2023-04-19T07:13:11;21.73;;;8.50;;
70199;SDS011;57587;55.688;37.600;2023-04-19T07:15:39;14.68;;;8.75;;
70199;SDS011;57587;55.688;37.600;2023-04-19T07:18:06;20.90;;;8.87;;
70199;SDS011;57587;55.688;37.600;2023-04-19T07:20:36;12.82;;;8.57;;
70199;SDS011;57587;55.688;37.600;2023-04-19T07:23:03;16.42;;;9.15;;
70199;SDS011;57587;55.688;37.600;2023-04-19T07:25:30;18.55;;;8.63;;
70199;SDS011;57587;55.688;37.600;2023-04-19T07:27:57;17.67;;;9.23;;
70199;SDS011;57587;55.688;37.600;2023-04-19T07:30:24;16.03;;;9.20;;
70199;SDS011;57587;55.688;37.600;2023-04-19T07:32:51;18.15;;;9.40;;
70199;SDS011;57587;55.688;37.600;2023-04-19T07:35:19;16.02;;;8.75;;
70199;SDS011;57587;55.688;37.600;2023-04-19T07:37:46;15.25;;;8.30;;
70199;SDS011;57587;55.688;37.600;2023-04-19T07:40:13;16.83;;;9.05;;
70199;SDS011;57587;55.688;37.600;2023-04-19T07:42:41;20.87;;;9.37;;
70199;SDS011;57587;55.688;37.600;2023-04-19T07:45:08;17.42;;;8.75;;
70199;SDS011;57587;55.688;37.600;2023-04-19T07:47:36;22.17;;;9.48;;
70199;SDS011;57587;55.688;37.600;2023-04-19T07:50:03;22.17;;;8.82;;
70199;SDS011;57587;55.688;37.600;2023-04-19T07:52:33;16.27;;;8.73;;
70199;SDS011;57587;55.688;37.600;2023-04-19T07:55:00;15.57;;;7.40;;
70199;SDS011;57587;55.688;37.600;2023-04-19T07:57:29;22.17;;;7.63;;
70199;SDS011;57587;55.688;37.600;2023-04-19T07:59:57;12.15;;;8.13;;
70199;SDS011;57587;55.688;37.600;2023-04-19T08:02:25;15.45;;;7.35;;
70199;SDS011;57587;55.688;37.600;2023-04-19T08:04:53;13.93;;;8.05;;
70199;SDS011;57587;55.688;37.600;2023-04-19T08:07:21;20.10;;;6.90;;
70199;SDS011;57587;55.688;37.600;2023-04-19T08:09:49;23.00;;;7.35;;
70199;SDS011;57587;55.688;37.600;2023-04-19T08:12:16;20.23;;;7.32;;
70199;SDS011;57587;55.688;37.600;2023-04-19T08:15:02;14.27;;;7.30;;
70199;SDS011;57587;55.688;37.600;2023-04-19T08:17:50;13.15;;;6.80;;
70199;SDS011;57587;55.688;37.600;2023-04-19T08:20:17;12.73;;;6.50;;
70199;SDS011;57587;55.688;37.600;2023-04-19T08:22:45;13.10;;;6.30;;
70199;SDS011;57587;55.688;37.600;2023-04-19T08:25:12;11.10;;;6.53;;
70199;SDS011;57587;55.688;37.600;2023-04-19T08:27:39;13.02;;;7.05;;
70199;SDS011;57587;55.688;37.600;2023-04-19T08:30:06;10.70;;;7.32;;
70199;SDS011;57587;55.688;37.600;2023-04-19T08:32:34;15.03;;;7.10;;
70199;SDS011;57587;55.688;37.600;2023-04-19T08:35:01;20.45;;;7.22;;
70199;SDS011;57587;55.688;37.600;2023-04-19T08:37:30;12.38;;;6.43;;
70199;SDS011;57587;55.688;37.600;2023-04-19T08:39:57;11.48;;;7.00;;
70199;SDS011;57587;55.688;37.600;2023-04-19T08:42:24;12.43;;;7.47;;
70199;SDS011;57587;55.688;37.600;2023-04-19T08:45:02;15.23;;;6.97;;
70199;SDS011;57587;55.688;37.600;2023-04-19T08:47:36;14.43;;;7.05;;
70199;SDS011;57587;55.688;37.600;2023-04-19T08:50:18;13.32;;;6.57;;
70199;SDS011;57587;55.688;37.600;2023-04-19T08:53:00;14.10;;;6.55;;
70199;SDS011;57587;55.688;37.600;2023-04-19T08:55:48;18.40;;;6.93;;
70199;SDS011;57587;55.688;37.600;2023-04-19T08:58:35;15.47;;;7.23;;
70199;SDS011;57587;55.688;37.600;2023-04-19T09:01:23;14.93;;;6.53;;
70199;SDS011;57587;55.688;37.600;2023-04-19T09:03:53;13.38;;;6.80;;
70199;SDS011;57587;55.688;37.600;2023-04-19T09:06:36;9.35;;;6.15;;
70199;SDS011;57587;55.688;37.600;2023-04-19T09:09:12;20.92;;;7.30;;
70199;SDS011;57587;55.688;37.600;2023-04-19T09:11:59;15.10;;;6.80;;
70199;SDS011;57587;55.688;37.600;2023-04-19T09:14:28;13.77;;;6.70;;
70199;SDS011;57587;55.688;37.600;2023-04-19T09:17:11;12.18;;;6.78;;
70199;SDS011;57587;55.688;37.600;2023-04-19T09:19:45;14.80;;;7.00;;
70199;SDS011;57587;55.688;37.600;2023-04-19T09:22:13;13.23;;;6.88;;
70199;SDS011;57587;55.688;37.600;2023-04-19T09:24:41;10.83;;;6.77;;
70199;SDS011;57587;55.688;37.600;2023-04-19T09:27:11;15.80;;;6.75;;
70199;SDS011;57587;55.688;37.600;2023-04-19T09:29:40;18.70;;;7.70;;
70199;SDS011;57587;55.688;37.600;2023-04-19T09:32:07;24.08;;;7.53;;
70199;SDS011;57587;55.688;37.600;2023-04-19T09:34:35;16.98;;;6.53;;
70199;SDS011;57587;55.688;37.600;2023-04-19T09:37:20;13.97;;;6.17;;
70199;SDS011;57587;55.688;37.600;2023-04-19T09:40:20;11.02;;;5.75;;
70199;SDS011;57587;55.688;37.600;2023-04-19T09:42:51;10.20;;;5.75;;
70199;SDS011;57587;55.688;37.600;2023-04-19T09:45:21;13.52;;;5.70;;
70199;SDS011;57587;55.688;37.600;2023-04-19T09:48:04;12.68;;;6.38;;
70199;SDS011;57587;55.688;37.600;2023-04-19T09:50:35;12.10;;;5.70;;
70199;SDS011;57587;55.688;37.600;2023-04-19T09:53:28;11.55;;;5.97;;
70199;SDS011;57587;55.688;37.600;2023-04-19T09:56:00;12.13;;;6.25;;
70199;SDS011;57587;55.688;37.600;2023-04-19T09:58:29;13.43;;;5.70;;
70199;SDS011;57587;55.688;37.600;2023-04-19T10:01:15;14.85;;;6.10;;
70199;SDS011;57587;55.688;37.600;2023-04-19T10:03:44;16.48;;;6.32;;
70199;SDS011;57587;55.688;37.600;2023-04-19T10:06:16;12.43;;;5.88;;
70199;SDS011;57587;55.688;37.600;2023-04-19T10:08:48;10.77;;;6.13;;
70199;SDS011;57587;55.688;37.600;2023-04-19T10:11:17;10.95;;;6.10;;
70199;SDS011;57587;55.688;37.600;2023-04-19T10:13:47;8.68;;;6.22;;
70199;SDS011;57587;55.688;37.600;2023-04-19T10:16:15;11.23;;;5.82;;
70199;SDS011;57587;55.688;37.600;2023-04-19T10:18:47;9.50;;;6.13;;
70199;SDS011;57587;55.688;37.600;2023-04-19T10:21:16;12.25;;;6.45;;
70199;SDS011;57587;55.688;37.600;2023-04-19T10:23:45;10.95;;;6.55;;
70199;SDS011;57587;55.688;37.600;2023-04-19T10:26:13;11.60;;;6.68;;
70199;SDS011;57587;55.688;37.600;2023-04-19T10:28:41;16.10;;;6.05;;
70199;SDS011;57587;55.688;37.600;2023-04-19T10:31:10;21.20;;;6.82;;
70199;SDS011;57587;55.688;37.600;2023-04-19T10:33:41;14.88;;;6.88;;
70199;SDS011;57587;55.688;37.600;2023-04-19T10:36:09;13.25;;;6.57;;
70199;SDS011;57587;55.688;37.600;2023-04-19T10:38:41;11.75;;;6.22;;
70199;SDS011;57587;55.688;37.600;2023-04-19T10:41:10;12.65;;;6.70;;
70199;SDS011;57587;55.688;37.600;2023-04-19T10:48:50;18.90;;;7.03;;
70199;SDS011;57587;55.688;37.600;2023-04-19T10:51:21;12.40;;;6.93;;
70199;SDS011;57587;55.688;37.600;2023-04-19T10:53:54;13.88;;;7.35;;
70199;SDS011;57587;55.688;37.600;2023-04-19T11:04:03;17.45;;;7.00;;
70199;SDS011;57587;55.688;37.600;2023-04-19T11:06:31;9.25;;;6.50;;
70199;SDS011;57587;55.688;37.600;2023-04-19T11:08:59;10.75;;;6.20;;
70199;SDS011;57587;55.688;37.600;2023-04-19T11:11:28;12.20;;;6.43;;
70199;SDS011;57587;55.688;37.600;2023-04-19T11:13:59;13.82;;;6.03;;
70199;SDS011;57587;55.688;37.600;2023-04-19T11:16:29;12.63;;;6.05;;
70199;SDS011;57587;55.688;37.600;2023-04-19T11:19:17;9.52;;;6.25;;
70199;SDS011;57587;55.688;37.600;2023-04-19T11:21:46;10.02;;;6.22;;
70199;SDS011;57587;55.688;37.600;2023-04-19T11:24:13;13.32;;;6.50;;
70199;SDS011;57587;55.688;37.600;2023-04-19T11:26:44;13.02;;;6.18;;
70199;SDS011;57587;55.688;37.600;2023-04-19T11:29:12;12.85;;;5.80;;
70199;SDS011;57587;55.688;37.600;2023-04-19T11:31:42;10.93;;;5.78;;
70199;SDS011;57587;55.688;37.600;2023-04-19T11:34:12;11.32;;;5.88;;
70199;SDS011;57587;55.688;37.600;2023-04-19T11:36:46;14.18;;;6.47;;
70199;SDS011;57587;55.688;37.600;2023-04-19T11:39:14;12.65;;;6.13;;
70199;SDS011;57587;55.688;37.600;2023-04-19T11:41:41;11.68;;;5.95;;
70199;SDS011;57587;55.688;37.600;2023-04-19T11:44:15;20.23;;;6.47;;
70199;SDS011;57587;55.688;37.600;2023-04-19T11:47:01;12.95;;;6.30;;
70199;SDS011;57587;55.688;37.600;2023-04-19T11:49:31;13.50;;;5.75;;
70199;SDS011;57587;55.688;37.600;2023-04-19T11:52:00;17.35;;;6.18;;
70199;SDS011;57587;55.688;37.600;2023-04-19T11:54:31;10.32;;;6.60;;
70199;SDS011;57587;55.688;37.600;2023-04-19T11:57:00;13.18;;;5.82;;
70199;SDS011;57587;55.688;37.600;2023-04-19T11:59:32;13.60;;;6.35;;
70199;SDS011;57587;55.688;37.600;2023-04-19T12:02:03;10.60;;;5.65;;
70199;SDS011;57587;55.688;37.600;2023-04-19T12:04:35;11.90;;;5.97;;
70199;SDS011;57587;55.688;37.600;2023-04-19T12:07:03;9.75;;;6.22;;
70199;SDS011;57587;55.688;37.600;2023-04-19T12:09:32;12.30;;;5.45;;
70199;SDS011;57587;55.688;37.600;2023-04-19T12:12:02;14.50;;;6.10;;
70199;SDS011;57587;55.688;37.600;2023-04-19T12:14:29;9.75;;;6.20;;
70199;SDS011;57587;55.688;37.600;2023-04-19T12:17:10;10.10;;;5.30;;
70199;SDS011;57587;55.688;37.600;2023-04-19T12:19:46;10.50;;;5.93;;
70199;SDS011;57587;55.688;37.600;2023-04-19T12:22:14;12.15;;;6.05;;
70199;SDS011;57587;55.688;37.600;2023-04-19T12:24:50;11.40;;;5.32;;
70199;SDS011;57587;55.688;37.600;2023-04-19T12:27:19;17.73;;;6.10;;
70199;SDS011;57587;55.688;37.600;2023-04-19T12:29:46;18.10;;;5.97;;
70199;SDS011;57587;55.688;37.600;2023-04-19T12:32:13;7.65;;;5.47;;
70199;SDS011;57587;55.688;37.600;2023-04-19T12:34:41;11.18;;;5.78;;
70199;SDS011;57587;55.688;37.600;2023-04-19T12:37:09;12.18;;;5.88;;
70199;SDS011;57587;55.688;37.600;2023-04-19T12:39:36;10.65;;;6.07;;
70199;SDS011;57587;55.688;37.600;2023-04-19T12:42:03;12.70;;;5.80;;
70199;SDS011;57587;55.688;37.600;2023-04-19T12:44:31;9.82;;;5.75;;
70199;SDS011;57587;55.688;37.600;2023-04-19T12:46:58;9.48;;;5.50;;
70199;SDS011;57587;55.688;37.600;2023-04-19T12:49:26;9.55;;;5.68;;
70199;SDS011;57587;55.688;37.600;2023-04-19T12:51:53;8.13;;;5.22;;
70199;SDS011;57587;55.688;37.600;2023-04-19T12:54:23;9.02;;;5.25;;
70199;SDS011;57587;55.688;37.600;2023-04-19T12:56:50;13.13;;;5.38;;
70199;SDS011;57587;55.688;37.600;2023-04-19T12:59:17;8.68;;;5.28;;
70199;SDS011;57587;55.688;37.600;2023-04-19T13:01:45;10.00;;;6.03;;
70199;SDS011;57587;55.688;37.600;2023-04-19T13:04:12;9.43;;;6.10;;
70199;SDS011;57587;55.688;37.600;2023-04-19T13:06:39;16.98;;;6.00;;
70199;SDS011;57587;55.688;37.600;2023-04-19T13:09:07;9.77;;;5.80;;
70199;SDS011;57587;55.688;37.600;2023-04-19T13:11:37;9.48;;;5.53;;
70199;SDS011;57587;55.688;37.600;2023-04-19T13:14:04;11.32;;;5.40;;
70199;SDS011;57587;55.688;37.600;2023-04-19T13:16:31;10.02;;;5.75;;
70199;SDS011;57587;55.688;37.600;2023-04-19T13:18:59;10.50;;;5.50;;
70199;SDS011;57587;55.688;37.600;2023-04-19T13:21:26;11.05;;;5.70;;
70199;SDS011;57587;55.688;37.600;2023-04-19T13:23:53;17.38;;;6.05;;
70199;SDS011;57587;55.688;37.600;2023-04-19T13:26:20;15.63;;;5.75;;
70199;SDS011;57587;55.688;37.600;2023-04-19T13:28:47;9.30;;;5.53;;
70199;SDS011;57587;55.688;37.600;2023-04-19T13:31:15;9.45;;;5.32;;
70199;SDS011;57587;55.688;37.600;2023-04-19T13:33:42;12.43;;;5.97;;
70199;SDS011;57587;55.688;37.600;2023-04-19T13:36:09;11.50;;;6.38;;
70199;SDS011;57587;55.688;37.600;2023-04-19T13:38:36;15.05;;;6.15;;
70199;SDS011;57587;55.688;37.600;2023-04-19T13:41:04;13.27;;;6.10;;
70199;SDS011;57587;55.688;37.600;2023-04-19T13:43:31;14.65;;;6.20;;
70199;SDS011;57587;55.688;37.600;2023-04-19T13:45:58;12.63;;;6.13;;
70199;SDS011;57587;55.688;37.600;2023-04-19T13:48:25;11.70;;;5.40;;
70199;SDS011;57587;55.688;37.600;2023-04-19T13:50:56;10.40;;;5.53;;
70199;SDS011;57587;55.688;37.600;2023-04-19T13:53:24;9.60;;;5.82;;
70199;SDS011;57587;55.688;37.600;2023-04-19T13:55:52;9.27;;;6.07;;
70199;SDS011;57587;55.688;37.600;2023-04-19T13:58:20;9.27;;;5.53;;
70199;SDS011;57587;55.688;37.600;2023-04-19T14:00:47;8.18;;;5.20;;
70199;SDS011;57587;55.688;37.600;2023-04-19T14:03:14;9.70;;;5.45;;
70199;SDS011;57587;55.688;37.600;2023-04-19T14:05:41;11.63;;;5.63;;
70199;SDS011;57587;55.688;37.600;2023-04-19T14:08:09;12.43;;;6.07;;
70199;SDS011;57587;55.688;37.600;2023-04-19T14:10:36;10.57;;;5.38;;
70199;SDS011;57587;55.688;37.600;2023-04-19T14:13:03;13.43;;;6.03;;
70199;SDS011;57587;55.688;37.600;2023-04-19T14:15:31;12.48;;;6.43;;
70199;SDS011;57587;55.688;37.600;2023-04-19T14:17:58;11.98;;;5.88;;
70199;SDS011;57587;55.688;37.600;2023-04-19T14:20:26;8.27;;;5.25;;
70199;SDS011;57587;55.688;37.600;2023-04-19T14:22:53;21.10;;;6.55;;
70199;SDS011;57587;55.688;37.600;2023-04-19T14:25:21;17.80;;;6.00;;
70199;SDS011;57587;55.688;37.600;2023-04-19T14:27:48;12.38;;;5.90;;
70199;SDS011;57587;55.688;37.600;2023-04-19T14:30:16;21.00;;;6.70;;
70199;SDS011;57587;55.688;37.600;2023-04-19T14:32:43;13.13;;;5.32;;
70199;SDS011;57587;55.688;37.600;2023-04-19T14:35:10;9.20;;;5.30;;
70199;SDS011;57587;55.688;37.600;2023-04-19T14:37:38;14.60;;;5.60;;
70199;SDS011;57587;55.688;37.600;2023-04-19T14:40:05;9.35;;;5.85;;
70199;SDS011;57587;55.688;37.600;2023-04-19T14:42:33;9.68;;;5.70;;
70199;SDS011;57587;55.688;37.600;2023-04-19T14:45:00;9.95;;;5.30;;